sensor_id;sensor_type;location;lat;lon;timestamp;P1;durP1;ratioP1;P2;durP2;ratioP2
16159;SDS011;8185;57.818;15.224;2024-03-07T00:01:36;6.10;;;4.07;;
16159;SDS011;8185;57.818;15.224;2024-03-07T00:04:05;5.90;;;4.03;;
16159;SDS011;8185;57.818;15.224;2024-03-07T00:06:33;7.30;;;4.50;;
16159;SDS011;8185;57.818;15.224;2024-03-07T00:09:01;4.67;;;3.90;;
16159;SDS011;8185;57.818;15.224;2024-03-07T00:11:29;6.53;;;4.40;;
16159;SDS011;8185;57.818;15.224;2024-03-07T00:13:57;7.77;;;4.50;;
16159;SDS011;8185;57.818;15.224;2024-03-07T00:16:24;5.87;;;4.03;;
16159;SDS011;8185;57.818;15.224;2024-03-07T00:18:53;7.27;;;3.77;;
16159;SDS011;8185;57.818;15.224;2024-03-07T00:21:21;4.57;;;3.97;;
16159;SDS011;8185;57.818;15.224;2024-03-07T00:23:48;7.33;;;4.17;;
16159;SDS011;8185;57.818;15.224;2024-03-07T00:26:18;5.27;;;4.13;;
16159;SDS011;8185;57.818;15.224;2024-03-07T00:28:46;4.63;;;4.20;;
16159;SDS011;8185;57.818;15.224;2024-03-07T00:31:15;5.23;;;4.20;;
16159;SDS011;8185;57.818;15.224;2024-03-07T00:33:44;5.67;;;3.80;;
16159;SDS011;8185;57.818;15.224;2024-03-07T00:36:12;4.13;;;3.73;;
16159;SDS011;8185;57.818;15.224;2024-03-07T00:38:41;6.17;;;4.60;;
16159;SDS011;8185;57.818;15.224;2024-03-07T00:41:10;7.37;;;4.70;;
16159;SDS011;8185;57.818;15.224;2024-03-07T00:43:39;7.07;;;4.97;;
16159;SDS011;8185;57.818;15.224;2024-03-07T00:46:07;6.20;;;4.70;;
16159;SDS011;8185;57.818;15.224;2024-03-07T00:48:37;5.23;;;4.17;;
16159;SDS011;8185;57.818;15.224;2024-03-07T00:51:05;7.30;;;4.70;;
16159;SDS011;8185;57.818;15.224;2024-03-07T00:53:34;10.87;;;4.53;;
16159;SDS011;8185;57.818;15.224;2024-03-07T00:56:03;5.80;;;3.87;;
16159;SDS011;8185;57.818;15.224;2024-03-07T00:58:31;4.57;;;3.40;;
16159;SDS011;8185;57.818;15.224;2024-03-07T01:01:02;4.60;;;3.57;;
16159;SDS011;8185;57.818;15.224;2024-03-07T01:03:30;5.43;;;3.20;;
16159;SDS011;8185;57.818;15.224;2024-03-07T01:05:58;3.70;;;3.20;;
16159;SDS011;8185;57.818;15.224;2024-03-07T01:08:27;3.33;;;2.97;;
16159;SDS011;8185;57.818;15.224;2024-03-07T01:10:58;4.50;;;3.07;;
16159;SDS011;8185;57.818;15.224;2024-03-07T01:13:26;4.17;;;2.93;;
16159;SDS011;8185;57.818;15.224;2024-03-07T01:15:55;4.87;;;3.10;;
16159;SDS011;8185;57.818;15.224;2024-03-07T01:18:25;4.33;;;3.00;;
16159;SDS011;8185;57.818;15.224;2024-03-07T01:20:53;5.90;;;3.40;;
16159;SDS011;8185;57.818;15.224;2024-03-07T01:23:22;5.37;;;3.37;;
16159;SDS011;8185;57.818;15.224;2024-03-07T01:25:50;3.47;;;2.87;;
16159;SDS011;8185;57.818;15.224;2024-03-07T01:28:18;4.47;;;3.37;;
16159;SDS011;8185;57.818;15.224;2024-03-07T01:30:48;4.50;;;3.57;;
16159;SDS011;8185;57.818;15.224;2024-03-07T01:33:16;4.60;;;3.63;;
16159;SDS011;8185;57.818;15.224;2024-03-07T01:35:46;5.70;;;3.43;;
16159;SDS011;8185;57.818;15.224;2024-03-07T01:38:15;4.20;;;3.33;;
16159;SDS011;8185;57.818;15.224;2024-03-07T01:40:44;3.90;;;3.37;;
16159;SDS011;8185;57.818;15.224;2024-03-07T01:43:12;5.00;;;3.03;;
16159;SDS011;8185;57.818;15.224;2024-03-07T01:45:41;4.17;;;3.23;;
16159;SDS011;8185;57.818;15.224;2024-03-07T01:48:09;4.30;;;3.40;;
16159;SDS011;8185;57.818;15.224;2024-03-07T01:50:38;5.07;;;3.27;;
16159;SDS011;8185;57.818;15.224;2024-03-07T01:53:08;5.83;;;3.70;;
16159;SDS011;8185;57.818;15.224;2024-03-07T01:55:38;6.13;;;3.40;;
16159;SDS011;8185;57.818;15.224;2024-03-07T01:58:07;4.33;;;3.17;;
16159;SDS011;8185;57.818;15.224;2024-03-07T02:00:38;4.47;;;3.53;;
16159;SDS011;8185;57.818;15.224;2024-03-07T02:03:07;5.10;;;3.90;;
16159;SDS011;8185;57.818;15.224;2024-03-07T02:05:34;5.27;;;4.57;;
16159;SDS011;8185;57.818;15.224;2024-03-07T02:08:02;5.70;;;4.60;;
16159;SDS011;8185;57.818;15.224;2024-03-07T02:10:32;9.77;;;8.53;;
16159;SDS011;8185;57.818;15.224;2024-03-07T02:13:00;10.17;;;8.07;;
16159;SDS011;8185;57.818;15.224;2024-03-07T02:15:28;7.50;;;6.80;;
16159;SDS011;8185;57.818;15.224;2024-03-07T02:17:56;10.40;;;5.70;;
16159;SDS011;8185;57.818;15.224;2024-03-07T02:20:25;7.10;;;4.97;;
16159;SDS011;8185;57.818;15.224;2024-03-07T02:22:55;9.43;;;8.33;;
16159;SDS011;8185;57.818;15.224;2024-03-07T02:25:23;7.50;;;6.67;;
16159;SDS011;8185;57.818;15.224;2024-03-07T02:27:51;8.17;;;7.47;;
16159;SDS011;8185;57.818;15.224;2024-03-07T02:30:19;12.90;;;11.40;;
16159;SDS011;8185;57.818;15.224;2024-03-07T02:32:48;14.30;;;12.80;;
16159;SDS011;8185;57.818;15.224;2024-03-07T02:35:21;13.37;;;12.07;;
16159;SDS011;8185;57.818;15.224;2024-03-07T02:37:48;12.07;;;10.97;;
16159;SDS011;8185;57.818;15.224;2024-03-07T02:40:17;12.67;;;11.37;;
16159;SDS011;8185;57.818;15.224;2024-03-07T02:42:46;10.57;;;9.47;;
16159;SDS011;8185;57.818;15.224;2024-03-07T02:45:14;7.27;;;6.10;;
16159;SDS011;8185;57.818;15.224;2024-03-07T02:47:42;13.73;;;12.30;;
16159;SDS011;8185;57.818;15.224;2024-03-07T02:50:10;14.87;;;13.37;;
16159;SDS011;8185;57.818;15.224;2024-03-07T02:52:38;15.07;;;13.57;;
16159;SDS011;8185;57.818;15.224;2024-03-07T02:55:07;17.27;;;15.43;;
16159;SDS011;8185;57.818;15.224;2024-03-07T02:57:38;16.60;;;15.00;;
16159;SDS011;8185;57.818;15.224;2024-03-07T03:00:07;15.47;;;14.00;;
16159;SDS011;8185;57.818;15.224;2024-03-07T03:02:46;21.50;;;19.30;;
16159;SDS011;8185;57.818;15.224;2024-03-07T03:05:14;19.73;;;17.73;;
16159;SDS011;8185;57.818;15.224;2024-03-07T03:07:44;20.60;;;18.63;;
16159;SDS011;8185;57.818;15.224;2024-03-07T03:10:19;21.13;;;19.03;;
16159;SDS011;8185;57.818;15.224;2024-03-07T03:12:51;22.43;;;20.23;;
16159;SDS011;8185;57.818;15.224;2024-03-07T03:15:20;22.63;;;20.47;;
16159;SDS011;8185;57.818;15.224;2024-03-07T03:17:49;23.43;;;21.13;;
16159;SDS011;8185;57.818;15.224;2024-03-07T03:20:17;25.07;;;22.53;;
16159;SDS011;8185;57.818;15.224;2024-03-07T03:22:51;25.23;;;22.53;;
16159;SDS011;8185;57.818;15.224;2024-03-07T03:25:19;24.00;;;21.70;;
16159;SDS011;8185;57.818;15.224;2024-03-07T03:27:49;24.93;;;22.37;;
16159;SDS011;8185;57.818;15.224;2024-03-07T03:30:19;28.30;;;25.20;;
16159;SDS011;8185;57.818;15.224;2024-03-07T03:32:46;29.37;;;26.47;;
16159;SDS011;8185;57.818;15.224;2024-03-07T03:35:15;30.03;;;26.90;;
16159;SDS011;8185;57.818;15.224;2024-03-07T03:37:43;34.60;;;30.97;;
16159;SDS011;8185;57.818;15.224;2024-03-07T03:40:11;36.40;;;32.80;;
16159;SDS011;8185;57.818;15.224;2024-03-07T03:42:40;38.53;;;34.63;;
16159;SDS011;8185;57.818;15.224;2024-03-07T03:45:11;42.57;;;38.07;;
16159;SDS011;8185;57.818;15.224;2024-03-07T03:47:41;42.77;;;38.13;;
16159;SDS011;8185;57.818;15.224;2024-03-07T03:50:10;41.93;;;37.43;;
16159;SDS011;8185;57.818;15.224;2024-03-07T03:52:39;42.77;;;38.03;;
16159;SDS011;8185;57.818;15.224;2024-03-07T03:55:07;38.40;;;34.50;;
16159;SDS011;8185;57.818;15.224;2024-03-07T03:57:37;31.03;;;28.00;;
16159;SDS011;8185;57.818;15.224;2024-03-07T04:00:07;28.97;;;26.07;;
16159;SDS011;8185;57.818;15.224;2024-03-07T04:02:41;33.47;;;29.93;;
16159;SDS011;8185;57.818;15.224;2024-03-07T04:05:10;34.20;;;30.70;;
16159;SDS011;8185;57.818;15.224;2024-03-07T04:07:39;30.90;;;27.77;;
16159;SDS011;8185;57.818;15.224;2024-03-07T04:10:08;34.13;;;30.73;;
16159;SDS011;8185;57.818;15.224;2024-03-07T04:12:37;35.70;;;31.97;;
16159;SDS011;8185;57.818;15.224;2024-03-07T04:15:07;24.10;;;21.57;;
16159;SDS011;8185;57.818;15.224;2024-03-07T04:17:35;21.33;;;19.13;;
16159;SDS011;8185;57.818;15.224;2024-03-07T04:20:06;23.77;;;21.27;;
16159;SDS011;8185;57.818;15.224;2024-03-07T04:22:36;22.57;;;20.27;;
16159;SDS011;8185;57.818;15.224;2024-03-07T04:25:06;19.70;;;17.73;;
16159;SDS011;8185;57.818;15.224;2024-03-07T04:27:36;17.50;;;15.70;;
16159;SDS011;8185;57.818;15.224;2024-03-07T04:30:05;17.60;;;15.90;;
16159;SDS011;8185;57.818;15.224;2024-03-07T04:32:36;14.80;;;13.30;;
16159;SDS011;8185;57.818;15.224;2024-03-07T04:35:06;15.20;;;13.70;;
16159;SDS011;8185;57.818;15.224;2024-03-07T04:37:35;14.93;;;13.17;;
16159;SDS011;8185;57.818;15.224;2024-03-07T04:40:03;13.77;;;12.30;;
16159;SDS011;8185;57.818;15.224;2024-03-07T04:42:40;14.73;;;13.20;;
16159;SDS011;8185;57.818;15.224;2024-03-07T04:45:09;14.50;;;13.00;;
16159;SDS011;8185;57.818;15.224;2024-03-07T04:47:39;21.03;;;18.53;;
16159;SDS011;8185;57.818;15.224;2024-03-07T04:50:10;18.13;;;16.33;;
16159;SDS011;8185;57.818;15.224;2024-03-07T04:52:38;19.40;;;17.40;;
16159;SDS011;8185;57.818;15.224;2024-03-07T04:55:06;20.27;;;18.23;;
16159;SDS011;8185;57.818;15.224;2024-03-07T04:57:36;9.33;;;8.03;;
16159;SDS011;8185;57.818;15.224;2024-03-07T05:00:06;31.50;;;28.10;;
16159;SDS011;8185;57.818;15.224;2024-03-07T05:02:39;11.70;;;9.60;;
16159;SDS011;8185;57.818;15.224;2024-03-07T05:05:07;16.53;;;14.07;;
16159;SDS011;8185;57.818;15.224;2024-03-07T05:07:37;8.30;;;7.40;;
16159;SDS011;8185;57.818;15.224;2024-03-07T05:37:20;9.30;;;8.10;;
16159;SDS011;8185;57.818;15.224;2024-03-07T05:39:49;9.57;;;8.60;;
16159;SDS011;8185;57.818;15.224;2024-03-07T05:42:18;9.97;;;8.23;;
16159;SDS011;8185;57.818;15.224;2024-03-07T05:44:47;13.77;;;9.00;;
16159;SDS011;8185;57.818;15.224;2024-03-07T05:47:15;9.80;;;8.80;;
16159;SDS011;8185;57.818;15.224;2024-03-07T05:49:43;10.13;;;8.97;;
16159;SDS011;8185;57.818;15.224;2024-03-07T05:52:11;13.37;;;10.87;;
16159;SDS011;8185;57.818;15.224;2024-03-07T05:54:39;15.13;;;11.47;;
16159;SDS011;8185;57.818;15.224;2024-03-07T05:57:10;10.80;;;9.30;;
16159;SDS011;8185;57.818;15.224;2024-03-07T05:59:39;10.50;;;9.50;;
16159;SDS011;8185;57.818;15.224;2024-03-07T06:02:07;10.90;;;8.50;;
16159;SDS011;8185;57.818;15.224;2024-03-07T06:04:35;11.27;;;8.97;;
16159;SDS011;8185;57.818;15.224;2024-03-07T06:07:03;11.17;;;9.33;;
16159;SDS011;8185;57.818;15.224;2024-03-07T06:09:32;11.73;;;10.53;;
16159;SDS011;8185;57.818;15.224;2024-03-07T06:11:59;14.30;;;11.80;;
16159;SDS011;8185;57.818;15.224;2024-03-07T06:14:29;15.60;;;12.90;;
16159;SDS011;8185;57.818;15.224;2024-03-07T06:16:59;14.27;;;12.80;;
16159;SDS011;8185;57.818;15.224;2024-03-07T06:19:27;12.23;;;10.50;;
16159;SDS011;8185;57.818;15.224;2024-03-07T06:21:57;13.87;;;12.43;;
16159;SDS011;8185;57.818;15.224;2024-03-07T06:24:25;12.97;;;8.80;;
16159;SDS011;8185;57.818;15.224;2024-03-07T06:26:56;10.73;;;8.13;;
16159;SDS011;8185;57.818;15.224;2024-03-07T06:29:30;8.37;;;7.57;;
16159;SDS011;8185;57.818;15.224;2024-03-07T06:31:59;11.50;;;8.97;;
16159;SDS011;8185;57.818;15.224;2024-03-07T06:34:27;24.73;;;9.07;;
16159;SDS011;8185;57.818;15.224;2024-03-07T06:36:56;11.90;;;8.30;;
16159;SDS011;8185;57.818;15.224;2024-03-07T06:39:23;41.43;;;10.27;;
16159;SDS011;8185;57.818;15.224;2024-03-07T06:41:51;42.00;;;10.13;;
16159;SDS011;8185;57.818;15.224;2024-03-07T06:44:19;168.03;;;18.10;;
16159;SDS011;8185;57.818;15.224;2024-03-07T06:46:49;18.20;;;9.13;;
16159;SDS011;8185;57.818;15.224;2024-03-07T06:49:19;90.57;;;13.40;;
16159;SDS011;8185;57.818;15.224;2024-03-07T06:51:46;43.87;;;11.10;;
16159;SDS011;8185;57.818;15.224;2024-03-07T06:54:14;26.20;;;9.97;;
16159;SDS011;8185;57.818;15.224;2024-03-07T06:56:42;153.23;;;17.33;;
16159;SDS011;8185;57.818;15.224;2024-03-07T06:59:10;92.13;;;13.27;;
16159;SDS011;8185;57.818;15.224;2024-03-07T07:01:40;44.87;;;10.80;;
16159;SDS011;8185;57.818;15.224;2024-03-07T07:04:09;29.77;;;10.77;;
16159;SDS011;8185;57.818;15.224;2024-03-07T07:06:40;57.10;;;14.33;;
16159;SDS011;8185;57.818;15.224;2024-03-07T07:09:09;108.87;;;16.77;;
16159;SDS011;8185;57.818;15.224;2024-03-07T07:11:36;83.03;;;14.53;;
16159;SDS011;8185;57.818;15.224;2024-03-07T07:14:05;73.10;;;21.40;;
16159;SDS011;8185;57.818;15.224;2024-03-07T07:16:33;313.47;;;45.27;;
16159;SDS011;8185;57.818;15.224;2024-03-07T07:19:02;113.93;;;17.23;;
16159;SDS011;8185;57.818;15.224;2024-03-07T07:21:29;30.80;;;10.17;;
16159;SDS011;8185;57.818;15.224;2024-03-07T07:23:59;99.20;;;12.53;;
16159;SDS011;8185;57.818;15.224;2024-03-07T07:26:27;139.80;;;18.17;;
16159;SDS011;8185;57.818;15.224;2024-03-07T07:28:55;58.57;;;12.87;;
16159;SDS011;8185;57.818;15.224;2024-03-07T07:31:23;74.73;;;16.87;;
16159;SDS011;8185;57.818;15.224;2024-03-07T07:33:52;53.57;;;13.07;;
16159;SDS011;8185;57.818;15.224;2024-03-07T07:36:20;46.90;;;13.67;;
16159;SDS011;8185;57.818;15.224;2024-03-07T07:38:48;17.03;;;11.63;;
16159;SDS011;8185;57.818;15.224;2024-03-07T07:41:18;46.23;;;13.60;;
16159;SDS011;8185;57.818;15.224;2024-03-07T07:43:46;53.63;;;10.10;;
16159;SDS011;8185;57.818;15.224;2024-03-07T07:46:14;127.43;;;12.97;;
16159;SDS011;8185;57.818;15.224;2024-03-07T07:48:43;55.07;;;8.57;;
16159;SDS011;8185;57.818;15.224;2024-03-07T07:51:11;126.10;;;13.47;;
16159;SDS011;8185;57.818;15.224;2024-03-07T07:53:39;138.97;;;13.80;;
16159;SDS011;8185;57.818;15.224;2024-03-07T07:56:07;85.80;;;8.70;;
16159;SDS011;8185;57.818;15.224;2024-03-07T07:58:37;47.80;;;8.40;;
16159;SDS011;8185;57.818;15.224;2024-03-07T08:01:06;68.67;;;10.47;;
16159;SDS011;8185;57.818;15.224;2024-03-07T08:03:35;105.10;;;11.50;;
16159;SDS011;8185;57.818;15.224;2024-03-07T08:06:04;132.73;;;13.20;;
16159;SDS011;8185;57.818;15.224;2024-03-07T08:08:31;62.80;;;8.60;;
16159;SDS011;8185;57.818;15.224;2024-03-07T08:11:00;85.97;;;9.93;;
16159;SDS011;8185;57.818;15.224;2024-03-07T08:13:28;53.97;;;8.77;;
16159;SDS011;8185;57.818;15.224;2024-03-07T08:15:58;48.00;;;7.53;;
16159;SDS011;8185;57.818;15.224;2024-03-07T08:18:26;43.70;;;7.53;;
16159;SDS011;8185;57.818;15.224;2024-03-07T08:20:55;77.90;;;6.43;;
16159;SDS011;8185;57.818;15.224;2024-03-07T08:23:23;52.67;;;6.82;;
16159;SDS011;8185;57.818;15.224;2024-03-07T08:25:52;67.18;;;7.20;;
16159;SDS011;8185;57.818;15.224;2024-03-07T08:28:21;31.47;;;5.57;;
16159;SDS011;8185;57.818;15.224;2024-03-07T08:30:49;34.97;;;6.77;;
16159;SDS011;8185;57.818;15.224;2024-03-07T08:33:19;31.60;;;6.23;;
16159;SDS011;8185;57.818;15.224;2024-03-07T08:35:48;30.43;;;7.47;;
16159;SDS011;8185;57.818;15.224;2024-03-07T08:38:19;49.70;;;9.97;;
16159;SDS011;8185;57.818;15.224;2024-03-07T08:40:47;24.57;;;7.83;;
16159;SDS011;8185;57.818;15.224;2024-03-07T08:43:15;11.60;;;7.20;;
16159;SDS011;8185;57.818;15.224;2024-03-07T08:45:44;19.83;;;9.20;;
16159;SDS011;8185;57.818;15.224;2024-03-07T08:48:12;19.43;;;10.03;;
16159;SDS011;8185;57.818;15.224;2024-03-07T08:50:42;18.10;;;9.70;;
16159;SDS011;8185;57.818;15.224;2024-03-07T08:53:09;22.73;;;9.20;;
16159;SDS011;8185;57.818;15.224;2024-03-07T08:55:37;20.73;;;8.63;;
16159;SDS011;8185;57.818;15.224;2024-03-07T08:58:05;14.33;;;9.53;;
16159;SDS011;8185;57.818;15.224;2024-03-07T09:00:34;13.50;;;7.53;;
16159;SDS011;8185;57.818;15.224;2024-03-07T09:03:03;7.40;;;6.17;;
16159;SDS011;8185;57.818;15.224;2024-03-07T09:05:35;10.27;;;7.23;;
16159;SDS011;8185;57.818;15.224;2024-03-07T09:08:05;14.23;;;7.97;;
16159;SDS011;8185;57.818;15.224;2024-03-07T09:10:33;24.53;;;10.50;;
16159;SDS011;8185;57.818;15.224;2024-03-07T09:13:01;36.73;;;13.83;;
16159;SDS011;8185;57.818;15.224;2024-03-07T09:15:32;20.87;;;17.80;;
16159;SDS011;8185;57.818;15.224;2024-03-07T09:18:00;12.57;;;10.60;;
16159;SDS011;8185;57.818;15.224;2024-03-07T09:20:29;22.70;;;11.30;;
16159;SDS011;8185;57.818;15.224;2024-03-07T09:22:57;13.23;;;11.83;;
16159;SDS011;8185;57.818;15.224;2024-03-07T09:25:27;13.90;;;12.47;;
16159;SDS011;8185;57.818;15.224;2024-03-07T09:27:59;13.03;;;11.63;;
16159;SDS011;8185;57.818;15.224;2024-03-07T09:30:27;13.57;;;12.13;;
16159;SDS011;8185;57.818;15.224;2024-03-07T09:32:56;18.97;;;17.07;;
16159;SDS011;8185;57.818;15.224;2024-03-07T09:35:24;20.67;;;18.57;;
16159;SDS011;8185;57.818;15.224;2024-03-07T09:37:51;9.90;;;8.90;;
16159;SDS011;8185;57.818;15.224;2024-03-07T09:40:20;12.70;;;11.30;;
16159;SDS011;8185;57.818;15.224;2024-03-07T09:42:53;9.90;;;8.90;;
16159;SDS011;8185;57.818;15.224;2024-03-07T09:45:28;7.30;;;6.57;;
16159;SDS011;8185;57.818;15.224;2024-03-07T09:47:56;5.40;;;4.90;;
16159;SDS011;8185;57.818;15.224;2024-03-07T09:50:25;4.23;;;3.83;;
16159;SDS011;8185;57.818;15.224;2024-03-07T09:52:56;3.30;;;3.00;;
16159;SDS011;8185;57.818;15.224;2024-03-07T09:55:26;4.10;;;2.70;;
16159;SDS011;8185;57.818;15.224;2024-03-07T09:57:55;2.50;;;2.30;;
16159;SDS011;8185;57.818;15.224;2024-03-07T10:50:15;4.13;;;1.50;;
16159;SDS011;8185;57.818;15.224;2024-03-07T10:52:49;3.07;;;1.27;;
16159;SDS011;8185;57.818;15.224;2024-03-07T10:55:23;2.78;;;1.40;;
16159;SDS011;8185;57.818;15.224;2024-03-07T10:58:02;3.40;;;1.40;;
16159;SDS011;8185;57.818;15.224;2024-03-07T11:00:37;2.20;;;1.13;;
16159;SDS011;8185;57.818;15.224;2024-03-07T11:03:13;1.95;;;1.20;;
16159;SDS011;8185;57.818;15.224;2024-03-07T11:05:41;2.27;;;1.40;;
16159;SDS011;8185;57.818;15.224;2024-03-07T11:10:39;1.40;;;1.00;;
16159;SDS011;8185;57.818;15.224;2024-03-07T11:13:08;3.55;;;1.27;;
16159;SDS011;8185;57.818;15.224;2024-03-07T11:15:40;1.85;;;1.40;;
16159;SDS011;8185;57.818;15.224;2024-03-07T11:18:11;3.77;;;1.40;;
16159;SDS011;8185;57.818;15.224;2024-03-07T11:20:40;2.33;;;1.50;;
16159;SDS011;8185;57.818;15.224;2024-03-07T11:23:27;2.20;;;1.00;;
16159;SDS011;8185;57.818;15.224;2024-03-07T11:26:01;2.97;;;1.57;;
16159;SDS011;8185;57.818;15.224;2024-03-07T12:20:46;1.42;;;1.05;;
16159;SDS011;8185;57.818;15.224;2024-03-07T12:23:24;2.93;;;0.90;;
16159;SDS011;8185;57.818;15.224;2024-03-07T12:25:59;3.40;;;1.00;;
16159;SDS011;8185;57.818;15.224;2024-03-07T12:28:28;2.60;;;0.90;;
16159;SDS011;8185;57.818;15.224;2024-03-07T12:30:59;1.67;;;0.83;;
16159;SDS011;8185;57.818;15.224;2024-03-07T12:33:28;1.97;;;1.03;;
16159;SDS011;8185;57.818;15.224;2024-03-07T12:38:36;1.77;;;1.20;;
16159;SDS011;8185;57.818;15.224;2024-03-07T12:43:39;3.13;;;1.40;;
16159;SDS011;8185;57.818;15.224;2024-03-07T12:58:29;3.70;;;1.52;;
16159;SDS011;8185;57.818;15.224;2024-03-07T13:00:58;2.73;;;1.43;;
16159;SDS011;8185;57.818;15.224;2024-03-07T13:03:26;1.90;;;1.30;;
16159;SDS011;8185;57.818;15.224;2024-03-07T13:05:56;3.37;;;1.67;;
16159;SDS011;8185;57.818;15.224;2024-03-07T13:48:07;2.47;;;1.42;;
16159;SDS011;8185;57.818;15.224;2024-03-07T13:50:37;2.80;;;1.90;;
16159;SDS011;8185;57.818;15.224;2024-03-07T13:53:06;2.78;;;1.88;;
16159;SDS011;8185;57.818;15.224;2024-03-07T13:55:53;4.33;;;1.50;;
16159;SDS011;8185;57.818;15.224;2024-03-07T13:58:37;2.07;;;1.33;;
16159;SDS011;8185;57.818;15.224;2024-03-07T14:01:29;3.47;;;1.20;;
16159;SDS011;8185;57.818;15.224;2024-03-07T14:04:23;2.40;;;1.07;;
16159;SDS011;8185;57.818;15.224;2024-03-07T14:07:32;1.33;;;1.00;;
16159;SDS011;8185;57.818;15.224;2024-03-07T14:13:29;2.27;;;1.33;;
16159;SDS011;8185;57.818;15.224;2024-03-07T14:16:21;3.50;;;1.00;;
16159;SDS011;8185;57.818;15.224;2024-03-07T14:19:45;2.83;;;1.37;;
16159;SDS011;8185;57.818;15.224;2024-03-07T14:22:54;1.57;;;1.00;;
16159;SDS011;8185;57.818;15.224;2024-03-07T14:25:48;1.90;;;1.00;;
16159;SDS011;8185;57.818;15.224;2024-03-07T14:28:42;3.00;;;0.93;;
16159;SDS011;8185;57.818;15.224;2024-03-07T14:44:17;3.22;;;1.40;;
16159;SDS011;8185;57.818;15.224;2024-03-07T14:46:46;2.00;;;1.10;;
16159;SDS011;8185;57.818;15.224;2024-03-07T14:56:43;1.42;;;1.00;;
16159;SDS011;8185;57.818;15.224;2024-03-07T14:59:11;3.15;;;1.23;;
16159;SDS011;8185;57.818;15.224;2024-03-07T15:01:39;2.60;;;1.20;;
16159;SDS011;8185;57.818;15.224;2024-03-07T15:04:07;2.35;;;1.00;;
16159;SDS011;8185;57.818;15.224;2024-03-07T15:06:38;2.38;;;1.30;;
16159;SDS011;8185;57.818;15.224;2024-03-07T15:09:07;2.28;;;1.20;;
16159;SDS011;8185;57.818;15.224;2024-03-07T15:11:37;3.22;;;1.35;;
16159;SDS011;8185;57.818;15.224;2024-03-07T15:14:06;2.10;;;1.00;;
16159;SDS011;8185;57.818;15.224;2024-03-07T15:16:35;1.92;;;1.00;;
16159;SDS011;8185;57.818;15.224;2024-03-07T15:19:04;2.17;;;0.95;;
16159;SDS011;8185;57.818;15.224;2024-03-07T15:21:33;3.35;;;1.00;;
16159;SDS011;8185;57.818;15.224;2024-03-07T15:24:01;3.17;;;0.93;;
16159;SDS011;8185;57.818;15.224;2024-03-07T15:26:31;2.10;;;1.00;;
16159;SDS011;8185;57.818;15.224;2024-03-07T15:29:00;1.92;;;0.98;;
16159;SDS011;8185;57.818;15.224;2024-03-07T15:36:24;2.83;;;0.80;;
16159;SDS011;8185;57.818;15.224;2024-03-07T16:01:11;1.88;;;0.90;;
16159;SDS011;8185;57.818;15.224;2024-03-07T16:03:42;1.63;;;0.80;;
16159;SDS011;8185;57.818;15.224;2024-03-07T16:06:12;6.03;;;0.77;;
16159;SDS011;8185;57.818;15.224;2024-03-07T16:08:42;5.47;;;0.83;;
16159;SDS011;8185;57.818;15.224;2024-03-07T16:11:10;5.40;;;0.87;;
16159;SDS011;8185;57.818;15.224;2024-03-07T16:13:39;5.23;;;0.80;;
16159;SDS011;8185;57.818;15.224;2024-03-07T16:16:07;3.77;;;0.80;;
16159;SDS011;8185;57.818;15.224;2024-03-07T16:18:37;1.97;;;0.73;;
16159;SDS011;8185;57.818;15.224;2024-03-07T16:21:06;1.83;;;0.83;;
16159;SDS011;8185;57.818;15.224;2024-03-07T16:23:34;3.93;;;0.70;;
16159;SDS011;8185;57.818;15.224;2024-03-07T16:26:04;1.67;;;0.70;;
16159;SDS011;8185;57.818;15.224;2024-03-07T16:31:01;0.73;;;0.60;;
16159;SDS011;8185;57.818;15.224;2024-03-07T16:33:29;3.50;;;0.80;;
16159;SDS011;8185;57.818;15.224;2024-03-07T16:35:59;2.23;;;0.90;;
16159;SDS011;8185;57.818;15.224;2024-03-07T16:38:27;3.50;;;1.13;;
16159;SDS011;8185;57.818;15.224;2024-03-07T16:40:55;2.13;;;1.10;;
16159;SDS011;8185;57.818;15.224;2024-03-07T16:43:24;2.65;;;0.88;;
16159;SDS011;8185;57.818;15.224;2024-03-07T16:45:52;3.15;;;1.20;;
16159;SDS011;8185;57.818;15.224;2024-03-07T16:48:20;3.30;;;1.30;;
16159;SDS011;8185;57.818;15.224;2024-03-07T16:50:49;2.90;;;1.30;;
16159;SDS011;8185;57.818;15.224;2024-03-07T16:53:21;3.47;;;1.20;;
16159;SDS011;8185;57.818;15.224;2024-03-07T16:55:50;3.30;;;1.20;;
16159;SDS011;8185;57.818;15.224;2024-03-07T16:58:19;1.98;;;1.20;;
16159;SDS011;8185;57.818;15.224;2024-03-07T17:00:47;3.45;;;1.10;;
16159;SDS011;8185;57.818;15.224;2024-03-07T17:03:17;3.90;;;1.23;;
16159;SDS011;8185;57.818;15.224;2024-03-07T17:05:46;2.70;;;1.10;;
16159;SDS011;8185;57.818;15.224;2024-03-07T17:08:14;2.55;;;1.15;;
16159;SDS011;8185;57.818;15.224;2024-03-07T17:10:46;1.50;;;1.13;;
16159;SDS011;8185;57.818;15.224;2024-03-07T17:13:16;2.72;;;1.40;;
16159;SDS011;8185;57.818;15.224;2024-03-07T17:15:44;3.15;;;1.48;;
16159;SDS011;8185;57.818;15.224;2024-03-07T17:18:12;2.90;;;1.38;;
16159;SDS011;8185;57.818;15.224;2024-03-07T17:20:42;4.80;;;1.33;;
16159;SDS011;8185;57.818;15.224;2024-03-07T17:23:09;3.63;;;1.58;;
16159;SDS011;8185;57.818;15.224;2024-03-07T17:25:38;3.70;;;1.50;;
16159;SDS011;8185;57.818;15.224;2024-03-07T17:28:08;3.17;;;1.30;;
16159;SDS011;8185;57.818;15.224;2024-03-07T17:30:36;2.30;;;1.40;;
16159;SDS011;8185;57.818;15.224;2024-03-07T17:33:05;3.92;;;1.42;;
16159;SDS011;8185;57.818;15.224;2024-03-07T17:35:32;6.63;;;1.83;;
16159;SDS011;8185;57.818;15.224;2024-03-07T17:37:59;3.65;;;1.30;;
16159;SDS011;8185;57.818;15.224;2024-03-07T17:40:28;4.40;;;1.42;;
16159;SDS011;8185;57.818;15.224;2024-03-07T17:42:57;5.38;;;1.58;;
16159;SDS011;8185;57.818;15.224;2024-03-07T17:45:30;5.43;;;1.63;;
16159;SDS011;8185;57.818;15.224;2024-03-07T17:48:00;4.18;;;1.77;;
16159;SDS011;8185;57.818;15.224;2024-03-07T17:50:30;3.63;;;1.63;;
16159;SDS011;8185;57.818;15.224;2024-03-07T17:53:00;2.90;;;1.33;;
16159;SDS011;8185;57.818;15.224;2024-03-07T17:55:33;3.63;;;1.50;;
16159;SDS011;8185;57.818;15.224;2024-03-07T17:58:02;6.03;;;1.60;;
16159;SDS011;8185;57.818;15.224;2024-03-07T18:00:32;6.38;;;2.63;;
16159;SDS011;8185;57.818;15.224;2024-03-07T18:03:02;5.80;;;2.35;;
16159;SDS011;8185;57.818;15.224;2024-03-07T18:05:31;6.07;;;1.85;;
16159;SDS011;8185;57.818;15.224;2024-03-07T18:08:02;4.60;;;1.60;;
16159;SDS011;8185;57.818;15.224;2024-03-07T18:10:34;3.92;;;1.65;;
16159;SDS011;8185;57.818;15.224;2024-03-07T18:13:03;2.92;;;1.38;;
16159;SDS011;8185;57.818;15.224;2024-03-07T18:15:32;4.18;;;1.48;;
16159;SDS011;8185;57.818;15.224;2024-03-07T18:18:00;5.72;;;1.80;;
16159;SDS011;8185;57.818;15.224;2024-03-07T18:20:31;5.32;;;2.80;;
16159;SDS011;8185;57.818;15.224;2024-03-07T18:22:59;4.25;;;2.05;;
16159;SDS011;8185;57.818;15.224;2024-03-07T18:25:28;4.05;;;2.00;;
16159;SDS011;8185;57.818;15.224;2024-03-07T18:27:56;3.60;;;1.70;;
16159;SDS011;8185;57.818;15.224;2024-03-07T18:30:27;2.25;;;1.48;;
16159;SDS011;8185;57.818;15.224;2024-03-07T18:32:57;3.95;;;1.50;;
16159;SDS011;8185;57.818;15.224;2024-03-07T18:35:30;3.20;;;1.38;;
16159;SDS011;8185;57.818;15.224;2024-03-07T18:37:59;4.05;;;1.48;;
16159;SDS011;8185;57.818;15.224;2024-03-07T18:40:27;5.25;;;1.55;;
16159;SDS011;8185;57.818;15.224;2024-03-07T18:43:01;4.07;;;1.60;;
16159;SDS011;8185;57.818;15.224;2024-03-07T18:45:32;3.35;;;1.60;;
16159;SDS011;8185;57.818;15.224;2024-03-07T18:50:33;5.07;;;1.50;;
16159;SDS011;8185;57.818;15.224;2024-03-07T18:53:10;2.42;;;1.25;;
16159;SDS011;8185;57.818;15.224;2024-03-07T18:55:40;3.78;;;1.42;;
16159;SDS011;8185;57.818;15.224;2024-03-07T18:58:12;2.78;;;1.23;;
16159;SDS011;8185;57.818;15.224;2024-03-07T19:00:41;3.35;;;1.42;;